Time;durP1;ratioP1;P1;durP2;ratioP2;P2;SDS_P1;SDS_P2;PMS_P1;PMS_P2;Temp;Humidity;BMP_temperature;BMP_pressure;BME280_temperature;BME280_humidity;BME280_pressure;Samples;Min_cycle;Max_cycle;Signal;HPM_P1;HPM_P2
2022/03/04 00:00:18;;;;;;;22.85;12.15;;;2.10;61.50;;;;;;5132395;27;20048;-85
2022/03/04 00:02:48;;;;;;;21.17;11.95;;;2.10;61.20;;;;;;5145916;27;20563;-83
2022/03/04 00:05:17;;;;;;;21.42;11.65;;;2.10;61.30;;;;;;5151197;27;20074;-84
2022/03/04 00:07:44;;;;;;;20.30;11.55;;;2.10;61.40;;;;;;5162262;27;20035;-85
2022/03/04 00:10:10;;;;;;;25.08;13.75;;;2.00;61.30;;;;;;5155890;27;20348;-84
2022/03/04 00:12:37;;;;;;;22.35;11.90;;;1.90;61.50;;;;;;5148022;27;20087;-84
2022/03/04 00:15:05;;;;;;;22.83;12.90;;;1.80;61.50;;;;;;5141871;27;20078;-83
2022/03/04 00:17:31;;;;;;;24.27;13.15;;;1.70;62.60;;;;;;5140921;27;20866;-84
2022/03/04 00:19:59;;;;;;;22.00;11.70;;;1.50;63.30;;;;;;5131172;27;20087;-83
2022/03/04 00:22:26;;;;;;;21.33;12.18;;;1.50;62.90;;;;;;5136162;27;20050;-83
2022/03/04 00:24:52;;;;;;;23.90;12.80;;;1.30;63.00;;;;;;5136073;27;20090;-84
2022/03/04 00:27:19;;;;;;;24.98;11.50;;;1.30;63.30;;;;;;5173700;27;20169;-83
2022/03/04 00:29:46;;;;;;;21.27;11.75;;;1.20;64.50;;;;;;5140155;27;20533;-83
2022/03/04 00:32:15;;;;;;;24.85;12.77;;;1.10;64.00;;;;;;5139550;27;20065;-83
2022/03/04 00:34:42;;;;;;;24.45;12.77;;;1.10;64.50;;;;;;5133242;27;20521;-83
2022/03/04 00:37:09;;;;;;;24.77;12.38;;;1.10;64.90;;;;;;5146296;27;20134;-83
2022/03/04 00:39:35;;;;;;;25.88;11.90;;;1.10;64.80;;;;;;5138810;27;20482;-83
2022/03/04 00:42:03;;;;;;;23.90;12.85;;;1.10;64.70;;;;;;5140756;27;20804;-83
2022/03/04 00:44:30;;;;;;;25.25;12.88;;;1.10;65.00;;;;;;5135575;27;20047;-83
2022/03/04 00:46:57;;;;;;;23.98;12.23;;;1.20;65.50;;;;;;5132809;27;20611;-83
2022/03/04 00:49:23;;;;;;;24.17;12.32;;;1.20;64.80;;;;;;5134664;27;20138;-83
2022/03/04 00:51:51;;;;;;;26.58;12.18;;;1.30;64.70;;;;;;5130270;27;20051;-84
2022/03/04 00:54:17;;;;;;;22.17;11.60;;;1.20;65.10;;;;;;5136573;27;20051;-84
2022/03/04 00:56:45;;;;;;;22.67;11.57;;;1.30;65.00;;;;;;5133189;27;20055;-84
2022/03/04 00:59:12;;;;;;;22.92;12.18;;;1.20;64.50;;;;;;5136917;27;20058;-84
2022/03/04 01:01:39;;;;;;;25.33;12.75;;;1.20;65.00;;;;;;5138780;27;20085;-84
2022/03/04 01:04:06;;;;;;;24.40;12.50;;;1.20;65.30;;;;;;5137130;27;20104;-84
2022/03/04 01:06:34;;;;;;;28.75;12.55;;;1.20;65.70;;;;;;5134395;27;20142;-83
2022/03/04 01:09:01;;;;;;;24.63;12.20;;;1.20;64.80;;;;;;5131167;27;20054;-84
2022/03/04 01:11:28;;;;;;;26.27;12.05;;;1.20;64.90;;;;;;5135656;27;20052;-83
2022/03/04 01:13:55;;;;;;;26.05;13.02;;;1.20;65.30;;;;;;5131031;27;20561;-84
2022/03/04 01:16:22;;;;;;;24.63;12.13;;;1.20;65.40;;;;;;5129168;27;20054;-84
2022/03/04 01:18:49;;;;;;;27.23;12.48;;;1.20;65.90;;;;;;5130256;27;20079;-84
2022/03/04 01:21:16;;;;;;;23.73;11.57;;;1.20;65.20;;;;;;5130696;27;20048;-84
2022/03/04 01:23:43;;;;;;;26.05;12.98;;;1.20;65.30;;;;;;5139827;27;20047;-84
2022/03/04 01:26:10;;;;;;;22.17;12.93;;;1.10;65.70;;;;;;5132125;27;20135;-84
2022/03/04 01:28:37;;;;;;;23.20;13.13;;;1.10;65.60;;;;;;5130484;27;20067;-84
2022/03/04 01:31:04;;;;;;;26.50;12.65;;;1.00;65.50;;;;;;5128949;27;20051;-83
2022/03/04 01:33:32;;;;;;;24.98;12.90;;;1.00;66.20;;;;;;5137349;27;20506;-83
2022/03/04 01:35:59;;;;;;;27.92;13.00;;;1.00;66.10;;;;;;5134734;27;20055;-84
2022/03/04 01:38:26;;;;;;;25.88;12.82;;;0.90;66.10;;;;;;5131936;27;20052;-84
2022/03/04 01:40:54;;;;;;;24.52;13.23;;;0.90;66.50;;;;;;5130099;27;20063;-84
2022/03/04 01:43:21;;;;;;;24.05;12.52;;;0.90;66.70;;;;;;5133053;27;20134;-84
2022/03/04 01:45:48;;;;;;;24.67;12.55;;;0.80;66.50;;;;;;5132765;27;20055;-83
2022/03/04 01:48:17;;;;;;;23.88;12.60;;;0.90;67.40;;;;;;5133305;27;20193;-84
2022/03/04 01:50:51;;;;;;;25.98;12.07;;;0.90;67.20;;;;;;5134362;27;20047;-83
2022/03/04 01:53:18;;;;;;;22.85;11.93;;;0.90;66.80;;;;;;5131838;27;20054;-84
2022/03/04 01:55:50;;;;;;;23.05;12.00;;;0.80;67.20;;;;;;5131327;27;20051;-84
2022/03/04 01:58:16;;;;;;;24.17;12.98;;;0.80;66.90;;;;;;5138191;27;20048;-84
2022/03/04 02:00:43;;;;;;;24.45;11.63;;;0.80;67.00;;;;;;5136170;27;20165;-84
2022/03/04 02:03:11;;;;;;;25.98;13.43;;;0.80;67.60;;;;;;5135635;27;20078;-84
2022/03/04 02:05:38;;;;;;;25.63;13.00;;;0.80;67.40;;;;;;5140711;27;20055;-84
2022/03/04 02:08:06;;;;;;;26.35;12.35;;;0.70;68.00;;;;;;5141086;27;20528;-84
2022/03/04 02:10:34;;;;;;;28.98;13.38;;;0.70;67.90;;;;;;5135461;27;20052;-84
2022/03/04 02:13:03;;;;;;;29.30;13.15;;;0.70;67.90;;;;;;5173101;27;20074;-84
2022/03/04 02:15:30;;;;;;;26.52;12.43;;;0.70;68.10;;;;;;5135265;27;20554;-83
2022/03/04 02:17:57;;;;;;;25.05;13.18;;;0.70;67.70;;;;;;5130170;27;20113;-84
2022/03/04 02:20:29;;;;;;;25.27;12.90;;;0.60;67.90;;;;;;5138385;27;20057;-84
2022/03/04 02:22:55;;;;;;;25.55;12.25;;;0.50;67.50;;;;;;5128232;27;20058;-84
2022/03/04 02:25:22;;;;;;;22.65;12.35;;;0.40;68.60;;;;;;5135852;27;20086;-84
2022/03/04 02:27:49;;;;;;;24.58;13.38;;;0.40;68.60;;;;;;5133430;27;20130;-83
2022/03/04 02:30:16;;;;;;;26.98;11.98;;;0.30;68.90;;;;;;5138816;27;20486;-84
2022/03/04 02:32:43;;;;;;;24.88;12.57;;;0.40;68.90;;;;;;5132699;27;20067;-84
2022/03/04 02:35:10;;;;;;;26.02;13.23;;;0.50;69.20;;;;;;5133847;27;20100;-83
2022/03/04 02:37:39;;;;;;;26.45;12.85;;;0.40;68.80;;;;;;5137622;27;20054;-84
2022/03/04 02:40:06;;;;;;;24.98;12.13;;;0.40;68.30;;;;;;5134998;27;20055;-84
2022/03/04 02:42:33;;;;;;;28.50;13.13;;;0.40;68.40;;;;;;5133226;27;20079;-84
2022/03/04 02:45:01;;;;;;;25.55;12.63;;;0.30;68.30;;;;;;5138347;27;20051;-83
2022/03/04 02:47:28;;;;;;;29.48;13.05;;;0.30;68.70;;;;;;5139993;27;20073;-84
2022/03/04 02:49:55;;;;;;;24.63;11.82;;;0.20;68.70;;;;;;5137360;27;20513;-84
2022/03/04 02:52:22;;;;;;;23.83;12.75;;;0.20;68.20;;;;;;5135007;27;20482;-84
2022/03/04 02:54:48;;;;;;;24.00;11.98;;;0.10;69.20;;;;;;5134405;27;20074;-84
2022/03/04 02:57:15;;;;;;;26.17;12.60;;;0.10;69.00;;;;;;5129382;27;20066;-84
2022/03/04 02:59:42;;;;;;;23.23;12.30;;;0.10;69.50;;;;;;5129159;27;20044;-84
2022/03/04 03:02:09;;;;;;;25.60;13.15;;;0.10;68.90;;;;;;5130133;27;20055;-84
2022/03/04 03:04:36;;;;;;;23.95;12.50;;;0.10;69.70;;;;;;5147329;27;20058;-83
2022/03/04 03:07:03;;;;;;;25.73;12.63;;;0.00;69.40;;;;;;5163645;27;20054;-84
2022/03/04 03:09:30;;;;;;;23.80;12.50;;;0.00;69.50;;;;;;5141880;27;20062;-84
2022/03/04 03:11:57;;;;;;;26.13;12.55;;;-0.10;69.40;;;;;;5132980;27;20047;-84
2022/03/04 03:14:26;;;;;;;25.52;12.90;;;0.00;71.20;;;;;;5142988;27;20507;-84
2022/03/04 03:16:53;;;;;;;30.42;13.18;;;0.00;70.20;;;;;;5132895;27;20063;-84
2022/03/04 03:19:23;;;;;;;24.25;12.55;;;0.00;69.70;;;;;;5129466;27;20477;-84
2022/03/04 03:21:50;;;;;;;24.10;12.60;;;0.00;71.10;;;;;;5143917;27;20051;-83
2022/03/04 03:24:20;;;;;;;28.15;12.75;;;0.00;70.60;;;;;;5133661;27;20460;-83
2022/03/04 03:26:51;;;;;;;26.63;12.50;;;-0.10;70.90;;;;;;5132757;27;20138;-83
2022/03/04 03:29:18;;;;;;;29.95;13.13;;;-0.10;71.10;;;;;;5139089;27;20086;-83
2022/03/04 03:31:45;;;;;;;27.70;12.95;;;0.00;71.50;;;;;;5145667;27;20064;-84
2022/03/04 03:34:12;;;;;;;24.98;12.30;;;0.00;70.70;;;;;;5132756;27;20047;-84
2022/03/04 03:36:41;;;;;;;30.23;13.10;;;-0.10;70.80;;;;;;5139183;27;20600;-84
2022/03/04 03:39:08;;;;;;;30.73;14.23;;;-0.10;70.80;;;;;;5132687;27;20043;-84
2022/03/04 03:41:38;;;;;;;25.25;12.23;;;-0.10;70.10;;;;;;5132495;27;20066;-84
2022/03/04 03:44:07;;;;;;;26.90;13.02;;;-0.20;70.10;;;;;;5135546;27;20079;-84
2022/03/04 03:46:34;;;;;;;23.30;12.27;;;-0.30;70.30;;;;;;5143666;27;20036;-84
2022/03/04 03:49:02;;;;;;;24.73;12.63;;;-0.40;70.00;;;;;;5148854;27;20044;-84
2022/03/04 03:51:34;;;;;;;25.40;13.23;;;-0.40;71.20;;;;;;5158535;27;20047;-84
2022/03/04 03:54:04;;;;;;;24.10;13.02;;;-0.50;71.40;;;;;;5154306;27;20044;-84
2022/03/04 03:56:31;;;;;;;32.95;13.20;;;-0.50;71.70;;;;;;5141602;27;20063;-83
2022/03/04 03:59:03;;;;;;;28.20;12.65;;;-0.50;72.10;;;;;;5132624;27;20494;-84
2022/03/04 04:01:30;;;;;;;27.00;13.63;;;-0.50;71.80;;;;;;5140937;27;20774;-83
2022/03/04 04:03:58;;;;;;;23.73;12.45;;;-0.50;71.80;;;;;;5132000;27;20052;-83
2022/03/04 04:06:25;;;;;;;25.05;12.82;;;-0.60;71.70;;;;;;5135531;27;20086;-84
2022/03/04 04:08:52;;;;;;;24.52;12.00;;;-0.60;72.60;;;;;;5139432;27;20050;-83
2022/03/04 04:11:19;;;;;;;25.80;12.73;;;-0.60;72.40;;;;;;5136128;27;20059;-84
2022/03/04 04:13:46;;;;;;;27.98;13.43;;;-0.60;71.90;;;;;;5146583;27;20051;-84
2022/03/04 04:16:14;;;;;;;22.92;11.68;;;-0.60;71.90;;;;;;5132715;27;20108;-84
2022/03/04 04:18:46;;;;;;;25.27;11.93;;;-0.70;71.20;;;;;;5140377;27;20080;-83
2022/03/04 04:21:13;;;;;;;24.63;12.88;;;-0.70;72.20;;;;;;5139495;27;20055;-84
2022/03/04 04:23:40;;;;;;;23.55;12.18;;;-0.80;71.50;;;;;;5132678;27;20097;-84
2022/03/04 04:26:08;;;;;;;25.67;12.30;;;-0.80;71.70;;;;;;5133025;27;20097;-83
2022/03/04 04:28:36;;;;;;;26.55;12.95;;;-0.90;71.70;;;;;;5137329;27;20079;-83
2022/03/04 04:31:06;;;;;;;24.42;11.98;;;-0.90;71.50;;;;;;5133932;27;20077;-83
2022/03/04 04:33:32;;;;;;;30.48;12.95;;;-1.00;71.80;;;;;;5138068;27;20134;-83
2022/03/04 04:36:02;;;;;;;23.42;12.63;;;-1.10;72.60;;;;;;5141458;27;20056;-83
2022/03/04 04:38:28;;;;;;;28.85;13.10;;;-1.10;74.00;;;;;;5130797;27;20060;-83
2022/03/04 04:40:56;;;;;;;25.00;11.48;;;-1.10;72.40;;;;;;5139543;27;20047;-84
2022/03/04 04:43:25;;;;;;;24.30;12.63;;;-1.20;72.10;;;;;;5134043;27;20058;-83
2022/03/04 04:45:53;;;;;;;25.05;12.63;;;-1.20;72.40;;;;;;5130864;27;20560;-83
2022/03/04 04:48:20;;;;;;;24.90;12.30;;;-1.30;73.00;;;;;;5144424;27;20547;-83
2022/03/04 04:50:47;;;;;;;27.95;13.48;;;-1.30;72.30;;;;;;5166630;27;20066;-83
2022/03/04 04:53:14;;;;;;;28.25;13.60;;;-1.30;71.40;;;;;;5135723;27;20047;-83
2022/03/04 04:55:41;;;;;;;26.67;12.95;;;-1.40;72.10;;;;;;5136385;27;20506;-83
2022/03/04 04:58:08;;;;;;;21.13;10.73;;;-1.40;71.50;;;;;;5142275;27;20098;-83
2022/03/04 05:00:39;;;;;;;29.02;13.60;;;-1.50;71.10;;;;;;5139723;27;20178;-84
2022/03/04 05:03:06;;;;;;;20.38;10.85;;;-1.50;73.50;;;;;;5136251;27;20106;-84
2022/03/04 05:05:34;;;;;;;30.75;13.45;;;-1.40;72.40;;;;;;5138455;27;20500;-83
2022/03/04 05:08:02;;;;;;;26.00;13.27;;;-1.50;73.40;;;;;;5136229;27;20047;-83
2022/03/04 05:10:30;;;;;;;26.63;13.30;;;-1.50;73.20;;;;;;5143972;27;20052;-83
2022/03/04 05:12:57;;;;;;;30.30;13.30;;;-1.50;73.30;;;;;;5130391;27;20142;-83
2022/03/04 05:15:24;;;;;;;24.80;13.82;;;-1.50;74.10;;;;;;5129454;27;20147;-83
2022/03/04 05:17:51;;;;;;;27.58;13.02;;;-1.50;75.20;;;;;;5134203;27;20079;-83
2022/03/04 05:20:18;;;;;;;32.03;13.75;;;-1.40;76.40;;;;;;5137208;27;20312;-83
2022/03/04 05:22:45;;;;;;;27.92;13.07;;;-1.40;76.20;;;;;;5142226;27;20039;-83
2022/03/04 05:25:13;;;;;;;28.15;13.80;;;-1.40;76.20;;;;;;5131492;27;20087;-83
2022/03/04 05:27:44;;;;;;;30.45;13.25;;;-1.40;75.90;;;;;;5132434;27;20056;-83
2022/03/04 05:30:13;;;;;;;28.75;13.25;;;-1.40;77.20;;;;;;5131163;27;20066;-84
2022/03/04 05:32:43;;;;;;;31.35;13.65;;;-1.40;75.40;;;;;;5135416;27;20497;-84
2022/03/04 05:35:10;;;;;;;28.45;13.43;;;-1.40;76.70;;;;;;5133821;27;20048;-83
2022/03/04 05:37:38;;;;;;;25.85;12.05;;;-1.30;76.90;;;;;;5145011;27;20063;-83
2022/03/04 05:40:06;;;;;;;26.83;13.52;;;-1.40;76.50;;;;;;5136815;27;20055;-84
2022/03/04 05:42:34;;;;;;;26.23;13.50;;;-1.40;75.80;;;;;;5136495;27;20051;-83
2022/03/04 05:45:09;;;;;;;28.85;13.15;;;-1.40;76.20;;;;;;5135842;27;20051;-83
2022/03/04 05:47:39;;;;;;;26.42;12.40;;;-1.40;78.10;;;;;;5140239;27;20051;-83
2022/03/04 05:50:06;;;;;;;28.98;14.70;;;-1.40;76.80;;;;;;5134698;27;20055;-83
2022/03/04 05:52:33;;;;;;;26.15;12.18;;;-1.40;77.00;;;;;;5130235;27;20114;-84
2022/03/04 05:55:00;;;;;;;26.15;13.82;;;-1.40;77.30;;;;;;5140510;27;20048;-84
2022/03/04 05:57:29;;;;;;;33.75;14.13;;;-1.40;77.60;;;;;;5160984;27;20083;-84
2022/03/04 05:59:56;;;;;;;26.60;13.05;;;-1.40;77.40;;;;;;5129210;27;20159;-84
2022/03/04 06:02:25;;;;;;;23.88;13.38;;;-1.50;77.70;;;;;;5133831;27;20113;-85
2022/03/04 06:04:52;;;;;;;25.85;13.55;;;-1.50;76.60;;;;;;5139159;27;20150;-85
2022/03/04 06:07:19;;;;;;;28.88;13.35;;;-1.50;77.40;;;;;;5142743;27;20054;-85
2022/03/04 06:09:46;;;;;;;31.10;14.52;;;-1.50;78.10;;;;;;5139305;27;20116;-85
2022/03/04 06:12:20;;;;;;;31.35;14.02;;;-1.50;78.10;;;;;;5136011;27;20281;-85
2022/03/04 06:14:48;;;;;;;30.08;13.10;;;-1.50;78.60;;;;;;5141197;27;20130;-85
2022/03/04 06:17:16;;;;;;;24.85;12.55;;;-1.50;77.50;;;;;;5145957;27;20146;-86
2022/03/04 06:19:44;;;;;;;29.05;13.57;;;-1.50;77.20;;;;;;5139297;27;20134;-85
2022/03/04 06:22:13;;;;;;;27.90;14.00;;;-1.60;77.40;;;;;;5133756;27;20051;-85
2022/03/04 06:24:40;;;;;;;31.02;14.00;;;-1.60;76.70;;;;;;5142421;27;20083;-85
2022/03/04 06:27:07;;;;;;;27.60;14.68;;;-1.60;77.20;;;;;;5144721;27;20172;-85
2022/03/04 06:29:34;;;;;;;27.95;13.52;;;-1.60;77.20;;;;;;5172539;27;20544;-85
2022/03/04 06:32:04;;;;;;;26.45;13.07;;;-1.60;77.70;;;;;;5144827;27;20051;-85
2022/03/04 06:34:32;;;;;;;26.55;13.07;;;-1.60;76.80;;;;;;5141675;27;20048;-85
2022/03/04 06:36:59;;;;;;;24.20;12.55;;;-1.60;77.60;;;;;;5138775;27;20071;-86
2022/03/04 06:39:29;;;;;;;27.63;13.38;;;-1.60;77.70;;;;;;5140283;27;20077;-85
2022/03/04 06:41:56;;;;;;;28.40;13.43;;;-1.60;77.20;;;;;;5124296;27;20051;-82
2022/03/04 06:44:25;;;;;;;32.60;13.98;;;-1.60;77.40;;;;;;5143490;27;20700;-83
2022/03/04 06:46:55;;;;;;;25.17;12.30;;;-1.60;79.20;;;;;;5140466;27;20052;-83
2022/03/04 06:49:22;;;;;;;28.05;13.60;;;-1.50;77.50;;;;;;5141544;27;20148;-84
2022/03/04 06:51:52;;;;;;;28.90;13.40;;;-1.60;78.30;;;;;;5140127;27;20047;-84
2022/03/04 06:54:18;;;;;;;30.75;13.60;;;-1.50;78.50;;;;;;5140906;27;20914;-84
2022/03/04 06:56:46;;;;;;;31.52;13.98;;;-1.50;79.30;;;;;;5141418;27;20059;-85
2022/03/04 06:59:26;;;;;;;30.17;14.02;;;-1.50;79.10;;;;;;5164607;27;20129;-84
2022/03/04 07:01:53;;;;;;;32.22;13.70;;;-1.40;78.60;;;;;;5138475;27;20202;-85
2022/03/04 07:04:20;;;;;;;30.10;13.55;;;-1.40;78.80;;;;;;5139567;27;20477;-85
2022/03/04 07:06:47;;;;;;;22.92;12.65;;;-1.40;78.80;;;;;;5127921;27;20055;-85
2022/03/04 07:09:14;;;;;;;29.40;14.20;;;-1.40;78.80;;;;;;5137186;27;20073;-84
2022/03/04 07:11:42;;;;;;;29.33;13.52;;;-1.30;79.20;;;;;;5137303;27;20078;-85
2022/03/04 07:14:11;;;;;;;27.23;13.55;;;-1.30;78.90;;;;;;5134906;27;20079;-84
2022/03/04 07:16:40;;;;;;;25.75;13.07;;;-1.20;78.80;;;;;;5127377;27;20058;-84
2022/03/04 07:19:07;;;;;;;24.70;12.65;;;-1.20;78.40;;;;;;5134886;27;20052;-85
2022/03/04 07:21:35;;;;;;;28.33;14.10;;;-1.20;78.60;;;;;;5135467;27;20922;-85
2022/03/04 07:24:02;;;;;;;27.90;13.57;;;-1.20;78.20;;;;;;5140340;27;20129;-85
2022/03/04 07:26:30;;;;;;;29.20;14.15;;;-1.10;78.30;;;;;;5134995;27;20831;-85
2022/03/04 07:28:57;;;;;;;27.35;13.88;;;-1.10;78.10;;;;;;5150136;27;20112;-85
2022/03/04 07:31:27;;;;;;;32.22;14.90;;;-1.00;78.10;;;;;;5150079;27;20044;-85
2022/03/04 07:33:54;;;;;;;35.05;14.25;;;-1.00;77.70;;;;;;5157793;27;20032;-85
2022/03/04 07:36:21;;;;;;;29.77;14.10;;;-0.90;78.40;;;;;;5151404;27;20194;-85
2022/03/04 07:38:47;;;;;;;30.98;14.23;;;-0.90;78.80;;;;;;5154546;27;20432;-85
2022/03/04 07:41:14;;;;;;;27.77;14.20;;;-0.80;79.10;;;;;;5146043;27;20481;-85
2022/03/04 07:43:41;;;;;;;28.35;13.68;;;-0.70;78.60;;;;;;5174567;27;20043;-85
2022/03/04 07:46:12;;;;;;;30.80;14.15;;;-0.60;78.30;;;;;;5131314;27;20055;-85
2022/03/04 07:48:39;;;;;;;30.67;14.48;;;-0.50;78.30;;;;;;5146043;27;20047;-85
2022/03/04 07:51:06;;;;;;;25.73;14.02;;;-0.30;78.20;;;;;;5132028;27;20082;-85
2022/03/04 07:53:33;;;;;;;28.17;13.07;;;-0.30;77.80;;;;;;5134730;27;20837;-85
2022/03/04 07:56:00;;;;;;;26.95;13.82;;;-0.20;77.40;;;;;;5137495;27;20590;-85
2022/03/04 07:58:30;;;;;;;29.67;14.05;;;-0.10;77.10;;;;;;5132214;27;20059;-85
2022/03/04 08:00:58;;;;;;;27.27;12.82;;;0.00;77.10;;;;;;5140682;27;20078;-85
2022/03/04 08:03:45;;;;;;;25.65;13.48;;;0.10;76.70;;;;;;5138517;27;20559;-85
2022/03/04 08:06:12;;;;;;;26.02;12.75;;;0.20;76.70;;;;;;5142092;27;20052;-85
2022/03/04 08:08:40;;;;;;;26.13;13.73;;;0.20;76.30;;;;;;5135889;27;20066;-85
2022/03/04 08:11:06;;;;;;;23.90;13.25;;;0.30;76.50;;;;;;5132266;27;20059;-85
2022/03/04 08:13:34;;;;;;;29.63;13.30;;;0.50;76.10;;;;;;5174743;27;20079;-85
2022/03/04 08:16:20;;;;;;;24.67;12.90;;;0.50;75.40;;;;;;5141480;27;20082;-85
2022/03/04 08:19:17;;;;;;;28.17;13.75;;;0.70;74.70;;;;;;5143504;27;20132;-85
2022/03/04 08:21:47;;;;;;;27.50;12.52;;;0.80;74.70;;;;;;5128597;27;20102;-85
2022/03/04 08:24:46;;;;;;;25.75;13.35;;;0.90;74.20;;;;;;5137232;27;20060;-85
2022/03/04 08:27:13;;;;;;;26.30;12.70;;;1.00;73.80;;;;;;5143762;27;20059;-85
2022/03/04 08:29:48;;;;;;;30.70;14.88;;;1.20;73.60;;;;;;5134299;27;20055;-85
2022/03/04 08:32:48;;;;;;;23.45;12.73;;;1.50;73.30;;;;;;5143736;27;20048;-85
2022/03/04 08:35:16;;;;;;;25.75;13.30;;;2.10;71.60;;;;;;5051437;28;21742;-85
2022/03/04 08:38:00;;;;;;;25.60;12.88;;;2.60;69.10;;;;;;5068865;28;20081;-85
2022/03/04 08:40:30;;;;;;;23.52;12.98;;;3.00;68.20;;;;;;5064824;28;20049;-85
2022/03/04 08:43:03;;;;;;;27.92;12.70;;;3.60;66.70;;;;;;5062994;28;20048;-85
2022/03/04 08:45:30;;;;;;;22.85;12.30;;;4.00;63.60;;;;;;5059200;28;20500;-85
2022/03/04 08:47:59;;;;;;;28.25;11.68;;;4.30;64.40;;;;;;5066614;28;20053;-84
2022/03/04 08:50:26;;;;;;;28.23;13.35;;;4.80;61.10;;;;;;5058418;28;20127;-86
2022/03/04 08:52:53;;;;;;;24.65;11.85;;;4.90;62.20;;;;;;5064900;28;20059;-84
2022/03/04 08:55:20;;;;;;;23.90;12.48;;;5.20;59.60;;;;;;5065529;28;20059;-84
2022/03/04 08:58:11;;;;;;;21.67;11.85;;;5.40;60.70;;;;;;5050251;28;20164;-85
2022/03/04 09:01:06;;;;;;;26.70;12.18;;;5.80;59.80;;;;;;5059123;28;20049;-84
2022/03/04 09:03:55;;;;;;;22.00;11.77;;;6.30;58.10;;;;;;5071027;28;20059;-84
2022/03/04 09:06:28;;;;;;;24.48;11.82;;;6.30;56.50;;;;;;5061703;28;20248;-85
2022/03/04 09:08:55;;;;;;;19.95;11.60;;;6.70;55.00;;;;;;5063707;28;20053;-84
2022/03/04 09:11:22;;;;;;;22.98;12.52;;;6.90;55.90;;;;;;5057561;28;20559;-85
2022/03/04 09:13:52;;;;;;;19.23;11.88;;;7.20;55.60;;;;;;5122158;27;20044;-84
2022/03/04 09:16:27;;;;;;;21.92;11.48;;;7.40;52.90;;;;;;5113494;27;20101;-84
2022/03/04 09:18:57;;;;;;;22.45;11.77;;;7.80;54.00;;;;;;5127684;27;20787;-84
2022/03/04 09:21:42;;;;;;;20.15;11.48;;;8.30;52.90;;;;;;5126728;27;20052;-85
2022/03/04 09:24:35;;;;;;;20.40;11.48;;;8.60;52.10;;;;;;5124171;27;20145;-84
2022/03/04 09:27:11;;;;;;;25.13;11.95;;;8.30;49.80;;;;;;5120023;27;20502;-85
2022/03/04 09:29:37;;;;;;;22.20;11.68;;;8.20;51.40;;;;;;5125644;27;20051;-84
2022/03/04 09:32:13;;;;;;;20.77;11.65;;;8.80;51.10;;;;;;5131558;27;20142;-84
2022/03/04 09:34:50;;;;;;;23.50;12.57;;;8.80;49.20;;;;;;5118609;27;20052;-83
2022/03/04 09:37:19;;;;;;;25.45;12.73;;;9.00;47.70;;;;;;5127550;27;20951;-85
2022/03/04 09:39:49;;;;;;;22.27;12.40;;;8.80;50.80;;;;;;5119588;27;20059;-85
2022/03/04 09:42:21;;;;;;;22.27;12.20;;;8.60;50.00;;;;;;5111382;27;20073;-84
2022/03/04 09:44:48;;;;;;;21.15;11.40;;;9.20;52.60;;;;;;5115867;27;20098;-85
2022/03/04 09:47:20;;;;;;;20.30;12.15;;;9.70;46.60;;;;;;5125304;27;20051;-84
2022/03/04 09:50:02;;;;;;;;;;;;;;;;;;;;;
2022/03/04 09:52:48;;;;;;;21.10;11.83;;;9.80;48.10;;;;;;5124985;27;20115;-85
2022/03/04 09:55:21;;;;;;;19.20;11.80;;;10.00;46.40;;;;;;5129332;27;20710;-83
2022/03/04 09:57:51;;;;;;;;;;;10.00;46.60;;;;;;5122657;27;20083;-83
2022/03/04 10:00:45;;;;;;;25.60;10.88;;;10.00;48.10;;;;;;5117386;27;19924;-83
2022/03/04 10:03:34;;;;;;;17.17;10.27;;;10.10;46.20;;;;;;5122333;27;20059;-83
2022/03/04 10:06:12;;;;;;;18.73;10.23;;;10.20;45.00;;;;;;5125861;27;20468;-83
2022/03/04 10:08:43;;;;;;;22.23;10.93;;;10.50;43.80;;;;;;5128064;27;20631;-83
2022/03/04 10:11:22;;;;;;;16.70;10.55;;;10.50;41.20;;;;;;5122478;27;20060;-83
2022/03/04 10:13:55;;;;;;;19.92;10.43;;;10.80;43.90;;;;;;5126209;27;20054;-83
2022/03/04 10:16:23;;;;;;;17.42;10.65;;;10.80;44.00;;;;;;5123624;27;21046;-83
2022/03/04 10:19:16;;;;;;;17.27;10.52;;;11.00;43.50;;;;;;5125689;27;20048;-83
2022/03/04 10:21:52;;;;;;;18.83;11.30;;;11.20;41.90;;;;;;5122933;27;20066;-83
2022/03/04 10:24:24;;;;;;;18.95;11.07;;;11.00;42.30;;;;;;5126919;27;21190;-84
2022/03/04 10:27:03;;;;;;;20.25;10.45;;;11.10;42.10;;;;;;5126629;27;20067;-84
2022/03/04 10:29:53;;;;;;;19.45;11.30;;;10.80;41.10;;;;;;5122355;27;20051;-84
2022/03/04 10:32:26;;;;;;;18.58;10.93;;;11.00;42.20;;;;;;5119638;27;20101;-84
2022/03/04 10:35:09;;;;;;;15.63;10.15;;;11.10;41.70;;;;;;5124826;27;20494;-84
2022/03/04 10:38:24;;;;;;;;;;;;;;;;;;;;;
2022/03/04 10:52:22;;;;;;;17.98;10.80;;;10.90;40.70;;;;;;6231621;22;1208815;-83
2022/03/04 10:55:00;;;;;;;18.67;11.15;;;11.00;38.80;;;;;;6288692;22;20362;-83
2022/03/04 10:57:41;;;;;;;22.48;11.32;;;11.10;41.00;;;;;;6295244;22;20231;-83
2022/03/04 11:00:22;;;;;;;22.20;11.55;;;11.40;39.50;;;;;;6295846;22;20098;-83
2022/03/04 11:02:54;;;;;;;20.27;11.73;;;11.50;39.70;;;;;;6297787;22;20063;-83
2022/03/04 11:05:27;;;;;;;20.30;11.57;;;11.30;40.20;;;;;;6253663;22;20024;-83
2022/03/04 11:08:14;;;;;;;20.75;11.85;;;11.60;40.30;;;;;;6261396;22;20030;-83
2022/03/04 11:10:55;;;;;;;22.00;11.90;;;11.40;38.70;;;;;;6260517;22;20058;-83
2022/03/04 11:13:35;;;;;;;20.27;11.97;;;11.30;39.70;;;;;;6262016;22;20047;-83
2022/03/04 11:16:26;;;;;;;19.92;11.77;;;11.30;39.40;;;;;;6287592;22;20022;-83
2022/03/04 11:18:57;;;;;;;19.23;11.45;;;11.30;40.80;;;;;;6289065;22;20024;-83
2022/03/04 11:21:30;;;;;;;21.35;11.70;;;11.60;41.00;;;;;;6289396;22;20092;-83
2022/03/04 11:24:29;;;;;;;22.02;11.80;;;11.80;40.60;;;;;;6285236;22;20098;-84
2022/03/04 11:27:05;;;;;;;20.67;11.52;;;11.70;40.10;;;;;;6286993;22;20028;-84
2022/03/04 11:29:40;;;;;;;18.40;11.38;;;11.60;38.50;;;;;;6288241;22;20062;-84
2022/03/04 11:33:10;;;;;;;21.65;11.90;;;11.50;39.30;;;;;;6284901;22;20020;-84
2022/03/04 11:35:42;;;;;;;21.30;11.70;;;11.40;39.40;;;;;;6273839;22;20023;-84
2022/03/04 11:38:57;;;;;;;19.25;12.05;;;11.20;41.30;;;;;;6286531;22;20062;-84
2022/03/04 11:41:39;;;;;;;21.80;12.38;;;11.20;40.50;;;;;;6260145;22;20414;-84
2022/03/04 11:44:14;;;;;;;19.00;11.85;;;11.20;41.70;;;;;;6284714;22;20045;-84
2022/03/04 11:47:27;;;;;;;18.83;12.00;;;11.30;40.60;;;;;;6286935;22;20024;-84
2022/03/04 11:50:10;;;;;;;;;;;;;;;;;;;;;
2022/03/04 11:53:11;;;;;;;18.80;12.05;;;10.80;40.10;;;;;;6276897;22;20044;-85
2022/03/04 11:56:25;;;;;;;21.85;12.93;;;10.60;40.30;;;;;;6281869;22;20461;-86
2022/03/04 11:59:12;;;;;;;21.67;12.98;;;10.60;41.50;;;;;;6252936;22;20020;-85
2022/03/04 12:01:50;;;;;;;20.60;12.45;;;10.70;41.40;;;;;;6281237;22;20028;-84
2022/03/04 12:04:18;;;;;;;20.05;11.98;;;10.60;42.60;;;;;;6254617;22;20339;-85
2022/03/04 12:07:10;;;;;;;18.40;11.75;;;10.70;42.00;;;;;;6280873;22;20016;-85
2022/03/04 12:10:03;;;;;;;21.50;12.02;;;10.70;42.40;;;;;;6278962;22;20080;-85
2022/03/04 12:12:32;;;;;;;22.52;12.77;;;10.70;42.50;;;;;;6276761;22;20035;-85
2022/03/04 12:15:17;;;;;;;21.15;12.98;;;10.70;40.90;;;;;;6279540;22;20359;-85
2022/03/04 12:18:03;;;;;;;24.38;12.65;;;10.70;42.40;;;;;;6255975;22;20078;-85
2022/03/04 12:20:55;;;;;;;19.95;12.43;;;10.70;42.70;;;;;;6279000;22;20095;-85
2022/03/04 12:24:12;;;;;;;21.67;12.50;;;10.70;41.00;;;;;;6249940;22;20024;-85
2022/03/04 12:26:53;;;;;;;19.48;11.82;;;10.70;41.10;;;;;;6252773;22;20762;-85
2022/03/04 12:29:40;;;;;;;20.02;12.18;;;10.80;42.10;;;;;;6274039;22;20869;-85
2022/03/04 12:32:17;;;;;;;18.20;10.80;;;10.90;43.00;;;;;;6272799;22;20527;-84
2022/03/04 12:34:52;;;;;;;16.65;10.65;;;11.00;40.70;;;;;;6275245;22;20024;-85
2022/03/04 12:37:19;;;;;;;17.60;11.07;;;11.00;40.10;;;;;;6274283;22;20028;-84
2022/03/04 12:39:51;;;;;;;16.40;10.13;;;11.10;40.30;;;;;;6274152;22;20028;-84
2022/03/04 12:45:34;;;;;;;19.25;10.55;;;11.10;40.80;;;;;;6118830;23;20036;-85
2022/03/04 12:48:04;;;;;;;17.55;10.27;;;11.10;38.80;;;;;;6126911;23;20026;-85
2022/03/04 12:50:32;;;;;;;19.67;9.20;;;11.00;38.30;;;;;;6151754;23;20033;-84
2022/03/04 12:53:22;;;;;;;15.05;9.32;;;11.30;38.40;;;;;;6102955;23;20466;-85
2022/03/04 12:55:57;;;;;;;17.67;9.77;;;11.40;37.20;;;;;;6151433;23;20732;-84
2022/03/04 12:58:45;;;;;;;14.43;8.63;;;11.30;38.20;;;;;;6151169;23;20119;-84
2022/03/04 13:01:13;;;;;;;12.48;7.53;;;11.50;39.10;;;;;;6126347;23;20029;-84
2022/03/04 13:03:56;;;;;;;11.52;7.40;;;11.40;34.40;;;;;;6151997;23;20345;-85
2022/03/04 13:06:28;;;;;;;14.20;7.63;;;11.50;35.20;;;;;;6151505;23;21045;-85
2022/03/04 13:09:12;;;;;;;10.98;6.07;;;11.50;36.30;;;;;;6109236;23;20026;-84
2022/03/04 13:11:43;;;;;;;16.20;6.10;;;11.40;32.50;;;;;;6152370;23;20053;-84
2022/03/04 13:14:16;;;;;;;10.95;6.13;;;11.40;32.80;;;;;;6148447;23;20062;-84